sensor_id;sensor_type;location;lat;lon;timestamp;temperature;humidity
3876;DHT22;1953;51.222;6.624;2024-01-15T00:03:43;2.40;1.00
3876;DHT22;1953;51.222;6.624;2024-01-15T00:08:25;2.30;1.00
3876;DHT22;1953;51.222;6.624;2024-01-15T00:13:08;2.30;1.00
3876;DHT22;1953;51.222;6.624;2024-01-15T00:20:43;2.30;1.00
3876;DHT22;1953;51.222;6.624;2024-01-15T00:25:26;2.20;1.00
3876;DHT22;1953;51.222;6.624;2024-01-15T00:30:09;2.30;1.00
3876;DHT22;1953;51.222;6.624;2024-01-15T00:34:52;2.30;1.00
3876;DHT22;1953;51.222;6.624;2024-01-15T00:39:36;2.40;1.00
3876;DHT22;1953;51.222;6.624;2024-01-15T00:44:18;2.40;1.00
3876;DHT22;1953;51.222;6.624;2024-01-15T00:49:01;2.40;1.00
3876;DHT22;1953;51.222;6.624;2024-01-15T00:53:44;2.50;1.00
3876;DHT22;1953;51.222;6.624;2024-01-15T00:58:28;2.50;1.00
3876;DHT22;1953;51.222;6.624;2024-01-15T01:03:10;2.50;1.00
3876;DHT22;1953;51.222;6.624;2024-01-15T01:07:53;2.60;1.00
3876;DHT22;1953;51.222;6.624;2024-01-15T01:12:35;2.60;1.00
3876;DHT22;1953;51.222;6.624;2024-01-15T01:17:19;2.50;1.00
3876;DHT22;1953;51.222;6.624;2024-01-15T01:22:02;2.60;1.00
3876;DHT22;1953;51.222;6.624;2024-01-15T01:26:45;2.60;1.00
3876;DHT22;1953;51.222;6.624;2024-01-15T01:31:28;2.60;1.00
3876;DHT22;1953;51.222;6.624;2024-01-15T01:36:11;2.60;1.00
3876;DHT22;1953;51.222;6.624;2024-01-15T01:40:54;2.70;1.00
3876;DHT22;1953;51.222;6.624;2024-01-15T01:45:37;2.60;1.00
3876;DHT22;1953;51.222;6.624;2024-01-15T01:50:19;2.60;1.00
3876;DHT22;1953;51.222;6.624;2024-01-15T01:55:04;2.70;1.00
3876;DHT22;1953;51.222;6.624;2024-01-15T01:59:49;2.70;1.00
3876;DHT22;1953;51.222;6.624;2024-01-15T02:04:32;2.70;1.00
3876;DHT22;1953;51.222;6.624;2024-01-15T02:09:17;2.70;1.00
3876;DHT22;1953;51.222;6.624;2024-01-15T02:14:01;2.70;1.00
3876;DHT22;1953;51.222;6.624;2024-01-15T02:18:45;2.70;1.00
3876;DHT22;1953;51.222;6.624;2024-01-15T02:23:29;2.70;1.00
3876;DHT22;1953;51.222;6.624;2024-01-15T02:28:13;2.70;1.00
3876;DHT22;1953;51.222;6.624;2024-01-15T02:32:55;2.80;1.00
3876;DHT22;1953;51.222;6.624;2024-01-15T02:37:38;2.80;1.00
3876;DHT22;1953;51.222;6.624;2024-01-15T02:42:22;2.80;1.00
3876;DHT22;1953;51.222;6.624;2024-01-15T02:47:04;2.90;1.00
3876;DHT22;1953;51.222;6.624;2024-01-15T02:51:47;2.90;1.00
3876;DHT22;1953;51.222;6.624;2024-01-15T02:56:29;2.80;1.00
3876;DHT22;1953;51.222;6.624;2024-01-15T03:01:13;2.80;1.00
3876;DHT22;1953;51.222;6.624;2024-01-15T03:05:56;2.90;1.00
3876;DHT22;1953;51.222;6.624;2024-01-15T03:10:38;2.80;1.00
3876;DHT22;1953;51.222;6.624;2024-01-15T03:15:21;2.90;1.00
3876;DHT22;1953;51.222;6.624;2024-01-15T03:20:06;2.90;1.00
3876;DHT22;1953;51.222;6.624;2024-01-15T03:24:48;2.80;1.00
3876;DHT22;1953;51.222;6.624;2024-01-15T03:29:31;2.90;1.00
3876;DHT22;1953;51.222;6.624;2024-01-15T03:34:13;2.90;1.00
3876;DHT22;1953;51.222;6.624;2024-01-15T03:38:57;2.90;1.00
3876;DHT22;1953;51.222;6.624;2024-01-15T03:43:40;2.90;1.00
3876;DHT22;1953;51.222;6.624;2024-01-15T03:48:22;2.90;1.00
3876;DHT22;1953;51.222;6.624;2024-01-15T03:53:05;2.90;1.00
3876;DHT22;1953;51.222;6.624;2024-01-15T03:57:49;2.90;1.00
3876;DHT22;1953;51.222;6.624;2024-01-15T04:02:31;2.90;1.00
3876;DHT22;1953;51.222;6.624;2024-01-15T04:07:14;2.90;1.00
3876;DHT22;1953;51.222;6.624;2024-01-15T04:11:56;2.90;1.00
3876;DHT22;1953;51.222;6.624;2024-01-15T04:16:40;2.90;1.00
3876;DHT22;1953;51.222;6.624;2024-01-15T04:21:22;2.90;1.00
3876;DHT22;1953;51.222;6.624;2024-01-15T04:26:05;2.80;1.00
3876;DHT22;1953;51.222;6.624;2024-01-15T04:30:47;2.80;1.00
3876;DHT22;1953;51.222;6.624;2024-01-15T04:35:32;2.80;1.00
3876;DHT22;1953;51.222;6.624;2024-01-15T04:40:15;2.80;1.00
3876;DHT22;1953;51.222;6.624;2024-01-15T04:44:57;2.80;1.00
3876;DHT22;1953;51.222;6.624;2024-01-15T04:49:40;2.80;1.00
3876;DHT22;1953;51.222;6.624;2024-01-15T04:54:24;2.90;1.00
3876;DHT22;1953;51.222;6.624;2024-01-15T04:59:06;2.90;1.00
3876;DHT22;1953;51.222;6.624;2024-01-15T05:03:49;2.90;1.00
3876;DHT22;1953;51.222;6.624;2024-01-15T05:08:32;2.90;1.00
3876;DHT22;1953;51.222;6.624;2024-01-15T05:13:15;2.90;1.00
3876;DHT22;1953;51.222;6.624;2024-01-15T05:17:58;2.90;1.00
3876;DHT22;1953;51.222;6.624;2024-01-15T05:22:40;3.00;1.00
3876;DHT22;1953;51.222;6.624;2024-01-15T05:27:23;3.00;1.00
3876;DHT22;1953;51.222;6.624;2024-01-15T05:32:07;3.00;1.00
3876;DHT22;1953;51.222;6.624;2024-01-15T05:36:49;3.00;1.00
3876;DHT22;1953;51.222;6.624;2024-01-15T05:41:32;3.00;1.00
3876;DHT22;1953;51.222;6.624;2024-01-15T05:46:14;3.00;1.00
3876;DHT22;1953;51.222;6.624;2024-01-15T05:50:58;3.00;1.00
3876;DHT22;1953;51.222;6.624;2024-01-15T05:55:41;3.00;1.00
3876;DHT22;1953;51.222;6.624;2024-01-15T06:00:23;3.10;1.00
3876;DHT22;1953;51.222;6.624;2024-01-15T06:05:06;3.00;1.00
3876;DHT22;1953;51.222;6.624;2024-01-15T06:09:50;3.10;1.00
3876;DHT22;1953;51.222;6.624;2024-01-15T06:14:32;3.10;1.00
3876;DHT22;1953;51.222;6.624;2024-01-15T06:19:15;3.10;1.00
3876;DHT22;1953;51.222;6.624;2024-01-15T06:23:57;3.10;1.00
3876;DHT22;1953;51.222;6.624;2024-01-15T06:28:41;3.10;1.00
3876;DHT22;1953;51.222;6.624;2024-01-15T06:33:24;3.10;1.00
3876;DHT22;1953;51.222;6.624;2024-01-15T06:38:06;3.00;1.00
3876;DHT22;1953;51.222;6.624;2024-01-15T06:42:49;3.00;1.00
3876;DHT22;1953;51.222;6.624;2024-01-15T06:47:32;2.90;1.00
3876;DHT22;1953;51.222;6.624;2024-01-15T06:52:15;2.90;1.00
3876;DHT22;1953;51.222;6.624;2024-01-15T06:56:57;2.90;1.00
3876;DHT22;1953;51.222;6.624;2024-01-15T07:01:40;2.90;1.00
3876;DHT22;1953;51.222;6.624;2024-01-15T07:06:24;2.90;1.00
3876;DHT22;1953;51.222;6.624;2024-01-15T07:11:07;3.00;1.00
3876;DHT22;1953;51.222;6.624;2024-01-15T07:15:49;3.00;1.00
3876;DHT22;1953;51.222;6.624;2024-01-15T07:20:32;3.00;1.00
3876;DHT22;1953;51.222;6.624;2024-01-15T07:25:16;3.00;1.00
3876;DHT22;1953;51.222;6.624;2024-01-15T07:29:59;3.00;1.00
3876;DHT22;1953;51.222;6.624;2024-01-15T07:34:41;3.00;1.00
3876;DHT22;1953;51.222;6.624;2024-01-15T07:39:24;3.10;1.00
3876;DHT22;1953;51.222;6.624;2024-01-15T07:44:08;3.00;1.00
3876;DHT22;1953;51.222;6.624;2024-01-15T07:48:50;3.10;1.00
3876;DHT22;1953;51.222;6.624;2024-01-15T07:53:37;3.00;1.00
3876;DHT22;1953;51.222;6.624;2024-01-15T07:58:19;3.00;1.00
3876;DHT22;1953;51.222;6.624;2024-01-15T08:03:04;3.00;1.00
3876;DHT22;1953;51.222;6.624;2024-01-15T08:07:47;3.10;1.00
3876;DHT22;1953;51.222;6.624;2024-01-15T08:12:30;3.00;1.00
3876;DHT22;1953;51.222;6.624;2024-01-15T08:17:13;3.00;1.00
3876;DHT22;1953;51.222;6.624;2024-01-15T08:21:57;3.00;1.00
3876;DHT22;1953;51.222;6.624;2024-01-15T08:26:39;3.00;1.00
3876;DHT22;1953;51.222;6.624;2024-01-15T08:31:22;2.80;1.00
3876;DHT22;1953;51.222;6.624;2024-01-15T08:36:05;2.70;1.00
3876;DHT22;1953;51.222;6.624;2024-01-15T08:40:49;2.60;1.00
3876;DHT22;1953;51.222;6.624;2024-01-15T08:45:32;2.60;1.00
3876;DHT22;1953;51.222;6.624;2024-01-15T08:50:14;2.50;1.00
3876;DHT22;1953;51.222;6.624;2024-01-15T08:54:57;2.50;1.00
3876;DHT22;1953;51.222;6.624;2024-01-15T08:59:41;2.60;1.00
3876;DHT22;1953;51.222;6.624;2024-01-15T09:04:24;2.60;1.00
3876;DHT22;1953;51.222;6.624;2024-01-15T09:09:06;2.60;1.00
3876;DHT22;1953;51.222;6.624;2024-01-15T09:13:49;2.50;1.00
3876;DHT22;1953;51.222;6.624;2024-01-15T09:18:34;2.50;1.00
3876;DHT22;1953;51.222;6.624;2024-01-15T09:23:17;2.50;1.00
3876;DHT22;1953;51.222;6.624;2024-01-15T09:27:59;2.50;1.00
3876;DHT22;1953;51.222;6.624;2024-01-15T09:32:41;2.60;1.00
3876;DHT22;1953;51.222;6.624;2024-01-15T09:37:26;2.70;1.00
3876;DHT22;1953;51.222;6.624;2024-01-15T09:42:09;2.60;1.00
3876;DHT22;1953;51.222;6.624;2024-01-15T09:46:53;2.60;1.00
3876;DHT22;1953;51.222;6.624;2024-01-15T09:51:38;2.60;1.00
3876;DHT22;1953;51.222;6.624;2024-01-15T09:56:23;2.70;1.00
3876;DHT22;1953;51.222;6.624;2024-01-15T10:01:06;2.70;1.00
3876;DHT22;1953;51.222;6.624;2024-01-15T10:05:49;2.70;1.00
3876;DHT22;1953;51.222;6.624;2024-01-15T10:10:32;2.70;1.00
3876;DHT22;1953;51.222;6.624;2024-01-15T10:15:17;2.70;1.00
3876;DHT22;1953;51.222;6.624;2024-01-15T10:20:00;2.80;1.00
3876;DHT22;1953;51.222;6.624;2024-01-15T10:24:46;2.80;1.00
3876;DHT22;1953;51.222;6.624;2024-01-15T10:29:30;2.80;1.00
3876;DHT22;1953;51.222;6.624;2024-01-15T10:34:14;2.80;1.00
3876;DHT22;1953;51.222;6.624;2024-01-15T10:38:57;2.70;1.00
3876;DHT22;1953;51.222;6.624;2024-01-15T10:43:41;2.80;1.00
3876;DHT22;1953;51.222;6.624;2024-01-15T10:48:23;2.90;1.00
3876;DHT22;1953;51.222;6.624;2024-01-15T10:53:09;2.90;1.00
3876;DHT22;1953;51.222;6.624;2024-01-15T10:57:54;2.90;1.00
3876;DHT22;1953;51.222;6.624;2024-01-15T11:02:38;3.00;1.00
3876;DHT22;1953;51.222;6.624;2024-01-15T11:07:22;3.10;1.00
3876;DHT22;1953;51.222;6.624;2024-01-15T11:12:12;3.00;1.00
3876;DHT22;1953;51.222;6.624;2024-01-15T11:16:55;3.00;1.00
3876;DHT22;1953;51.222;6.624;2024-01-15T11:21:42;3.20;1.00
3876;DHT22;1953;51.222;6.624;2024-01-15T11:26:29;3.20;1.00
3876;DHT22;1953;51.222;6.624;2024-01-15T11:31:14;3.40;1.00
3876;DHT22;1953;51.222;6.624;2024-01-15T11:35:57;3.30;1.00
3876;DHT22;1953;51.222;6.624;2024-01-15T11:40:40;3.30;1.00
3876;DHT22;1953;51.222;6.624;2024-01-15T11:45:26;3.40;1.00
3876;DHT22;1953;51.222;6.624;2024-01-15T11:50:10;3.40;1.00
3876;DHT22;1953;51.222;6.624;2024-01-15T11:54:58;3.50;1.00
3876;DHT22;1953;51.222;6.624;2024-01-15T11:59:43;3.80;1.00
3876;DHT22;1953;51.222;6.624;2024-01-15T12:04:26;3.90;1.00
3876;DHT22;1953;51.222;6.624;2024-01-15T12:09:10;3.80;1.00
3876;DHT22;1953;51.222;6.624;2024-01-15T12:13:52;3.70;1.00
3876;DHT22;1953;51.222;6.624;2024-01-15T12:21:44;3.70;1.00
3876;DHT22;1953;51.222;6.624;2024-01-15T12:26:27;3.70;1.00
3876;DHT22;1953;51.222;6.624;2024-01-15T12:31:10;3.70;1.00
3876;DHT22;1953;51.222;6.624;2024-01-15T12:35:53;3.70;1.00
3876;DHT22;1953;51.222;6.624;2024-01-15T12:40:37;3.80;1.00
3876;DHT22;1953;51.222;6.624;2024-01-15T12:45:19;3.90;1.00
3876;DHT22;1953;51.222;6.624;2024-01-15T12:50:02;4.00;1.00
3876;DHT22;1953;51.222;6.624;2024-01-15T12:54:45;4.00;1.00
3876;DHT22;1953;51.222;6.624;2024-01-15T12:59:28;3.90;1.00
3876;DHT22;1953;51.222;6.624;2024-01-15T13:04:11;3.90;1.00
3876;DHT22;1953;51.222;6.624;2024-01-15T13:08:53;3.90;1.00
3876;DHT22;1953;51.222;6.624;2024-01-15T13:13:36;4.10;1.00
3876;DHT22;1953;51.222;6.624;2024-01-15T13:18:20;4.40;1.00
3876;DHT22;1953;51.222;6.624;2024-01-15T13:23:03;4.20;1.00
3876;DHT22;1953;51.222;6.624;2024-01-15T13:27:46;4.10;1.00
3876;DHT22;1953;51.222;6.624;2024-01-15T13:32:29;4.00;1.00
3876;DHT22;1953;51.222;6.624;2024-01-15T13:37:13;3.70;1.00
3876;DHT22;1953;51.222;6.624;2024-01-15T13:41:55;3.60;1.00
3876;DHT22;1953;51.222;6.624;2024-01-15T13:46:38;3.50;1.00
3876;DHT22;1953;51.222;6.624;2024-01-15T13:51:22;3.60;1.00
3876;DHT22;1953;51.222;6.624;2024-01-15T13:56:07;3.60;1.00
3876;DHT22;1953;51.222;6.624;2024-01-15T14:00:51;3.50;1.00
3876;DHT22;1953;51.222;6.624;2024-01-15T14:05:34;3.40;1.00
3876;DHT22;1953;51.222;6.624;2024-01-15T14:10:16;3.50;1.00
3876;DHT22;1953;51.222;6.624;2024-01-15T14:15:01;3.50;1.00
3876;DHT22;1953;51.222;6.624;2024-01-15T14:19:43;3.50;1.00
3876;DHT22;1953;51.222;6.624;2024-01-15T14:24:26;3.50;1.00
3876;DHT22;1953;51.222;6.624;2024-01-15T14:29:08;3.50;1.00
3876;DHT22;1953;51.222;6.624;2024-01-15T14:33:52;3.50;1.00
3876;DHT22;1953;51.222;6.624;2024-01-15T14:38:36;3.40;1.00
3876;DHT22;1953;51.222;6.624;2024-01-15T14:43:18;3.40;1.00
3876;DHT22;1953;51.222;6.624;2024-01-15T14:48:01;3.50;1.00
3876;DHT22;1953;51.222;6.624;2024-01-15T14:52:45;3.40;1.00
3876;DHT22;1953;51.222;6.624;2024-01-15T14:57:28;3.40;1.00
3876;DHT22;1953;51.222;6.624;2024-01-15T15:02:11;3.40;1.00
3876;DHT22;1953;51.222;6.624;2024-01-15T15:06:54;3.30;1.00
3876;DHT22;1953;51.222;6.624;2024-01-15T15:11:38;3.20;1.00
3876;DHT22;1953;51.222;6.624;2024-01-15T15:16:20;3.10;1.00
3876;DHT22;1953;51.222;6.624;2024-01-15T15:21:03;3.00;1.00
3876;DHT22;1953;51.222;6.624;2024-01-15T15:25:46;3.00;1.00
3876;DHT22;1953;51.222;6.624;2024-01-15T15:30:29;2.80;1.00
3876;DHT22;1953;51.222;6.624;2024-01-15T15:35:12;2.80;1.00
3876;DHT22;1953;51.222;6.624;2024-01-15T15:39:55;2.80;1.00
3876;DHT22;1953;51.222;6.624;2024-01-15T15:44:37;2.70;1.00
3876;DHT22;1953;51.222;6.624;2024-01-15T15:49:26;2.80;1.00
3876;DHT22;1953;51.222;6.624;2024-01-15T15:54:08;2.80;1.00
3876;DHT22;1953;51.222;6.624;2024-01-15T15:58:52;2.80;1.00
3876;DHT22;1953;51.222;6.624;2024-01-15T16:03:35;2.80;1.00
3876;DHT22;1953;51.222;6.624;2024-01-15T16:08:19;2.80;1.00
3876;DHT22;1953;51.222;6.624;2024-01-15T16:13:01;2.70;1.00
3876;DHT22;1953;51.222;6.624;2024-01-15T16:17:44;2.70;1.00
3876;DHT22;1953;51.222;6.624;2024-01-15T16:22:26;2.60;1.00
3876;DHT22;1953;51.222;6.624;2024-01-15T16:27:10;2.70;1.00
3876;DHT22;1953;51.222;6.624;2024-01-15T16:31:53;2.70;1.00
3876;DHT22;1953;51.222;6.624;2024-01-15T16:36:35;2.60;1.00
3876;DHT22;1953;51.222;6.624;2024-01-15T16:41:18;2.60;1.00
3876;DHT22;1953;51.222;6.624;2024-01-15T16:46:02;2.60;1.00
3876;DHT22;1953;51.222;6.624;2024-01-15T16:50:44;2.60;1.00
3876;DHT22;1953;51.222;6.624;2024-01-15T16:55:27;2.60;1.00
3876;DHT22;1953;51.222;6.624;2024-01-15T17:00:10;2.60;1.00
3876;DHT22;1953;51.222;6.624;2024-01-15T17:04:54;1.60;1.00
3876;DHT22;1953;51.222;6.624;2024-01-15T17:09:37;2.60;1.00
3876;DHT22;1953;51.222;6.624;2024-01-15T17:14:19;2.60;1.00
3876;DHT22;1953;51.222;6.624;2024-01-15T17:19:02;2.60;1.00
3876;DHT22;1953;51.222;6.624;2024-01-15T17:23:46;2.60;1.00
3876;DHT22;1953;51.222;6.624;2024-01-15T17:28:29;2.60;1.00
3876;DHT22;1953;51.222;6.624;2024-01-15T17:33:11;2.60;1.00
3876;DHT22;1953;51.222;6.624;2024-01-15T17:37:54;2.60;1.00
3876;DHT22;1953;51.222;6.624;2024-01-15T17:42:38;2.60;1.00
3876;DHT22;1953;51.222;6.624;2024-01-15T17:47:21;2.60;1.00
3876;DHT22;1953;51.222;6.624;2024-01-15T17:52:03;2.60;1.00
3876;DHT22;1953;51.222;6.624;2024-01-15T17:56:46;2.70;1.00
3876;DHT22;1953;51.222;6.624;2024-01-15T18:01:30;2.70;1.00
3876;DHT22;1953;51.222;6.624;2024-01-15T18:06:13;2.80;1.00
3876;DHT22;1953;51.222;6.624;2024-01-15T18:10:56;2.70;1.00
3876;DHT22;1953;51.222;6.624;2024-01-15T18:15:38;2.70;1.00
3876;DHT22;1953;51.222;6.624;2024-01-15T18:20:22;2.70;1.00
3876;DHT22;1953;51.222;6.624;2024-01-15T18:25:05;2.60;1.00
3876;DHT22;1953;51.222;6.624;2024-01-15T18:29:49;2.60;1.00
3876;DHT22;1953;51.222;6.624;2024-01-15T18:34:32;2.70;1.00
3876;DHT22;1953;51.222;6.624;2024-01-15T18:39:16;2.60;1.00
3876;DHT22;1953;51.222;6.624;2024-01-15T18:43:58;2.50;1.00
3876;DHT22;1953;51.222;6.624;2024-01-15T18:48:43;2.50;1.00
3876;DHT22;1953;51.222;6.624;2024-01-15T18:53:25;2.50;1.00
3876;DHT22;1953;51.222;6.624;2024-01-15T18:58:09;2.50;1.00
3876;DHT22;1953;51.222;6.624;2024-01-15T19:02:52;2.40;1.00
3876;DHT22;1953;51.222;6.624;2024-01-15T19:07:38;2.40;1.00
3876;DHT22;1953;51.222;6.624;2024-01-15T19:12:21;2.40;1.00
3876;DHT22;1953;51.222;6.624;2024-01-15T19:17:05;2.50;1.00
3876;DHT22;1953;51.222;6.624;2024-01-15T19:21:47;2.50;1.00
3876;DHT22;1953;51.222;6.624;2024-01-15T19:26:30;2.50;1.00
3876;DHT22;1953;51.222;6.624;2024-01-15T19:31:12;2.40;1.00
3876;DHT22;1953;51.222;6.624;2024-01-15T19:35:56;2.40;1.00
3876;DHT22;1953;51.222;6.624;2024-01-15T19:40:39;2.40;1.00
3876;DHT22;1953;51.222;6.624;2024-01-15T19:45:22;2.40;1.00
3876;DHT22;1953;51.222;6.624;2024-01-15T19:50:06;2.40;1.00
3876;DHT22;1953;51.222;6.624;2024-01-15T19:54:50;2.40;1.00
3876;DHT22;1953;51.222;6.624;2024-01-15T19:59:33;2.40;1.00
3876;DHT22;1953;51.222;6.624;2024-01-15T20:04:15;2.40;1.00
3876;DHT22;1953;51.222;6.624;2024-01-15T20:08:58;1.20;1.00
3876;DHT22;1953;51.222;6.624;2024-01-15T20:13:41;2.40;1.00
3876;DHT22;1953;51.222;6.624;2024-01-15T20:18:24;2.50;1.00
3876;DHT22;1953;51.222;6.624;2024-01-15T20:23:06;2.40;1.00
3876;DHT22;1953;51.222;6.624;2024-01-15T20:27:50;2.30;1.00
3876;DHT22;1953;51.222;6.624;2024-01-15T20:32:34;2.30;1.00
3876;DHT22;1953;51.222;6.624;2024-01-15T20:37:17;2.30;1.00
3876;DHT22;1953;51.222;6.624;2024-01-15T20:41:59;2.20;1.00
3876;DHT22;1953;51.222;6.624;2024-01-15T20:46:42;2.20;1.00
3876;DHT22;1953;51.222;6.624;2024-01-15T20:51:26;2.20;1.00
3876;DHT22;1953;51.222;6.624;2024-01-15T20:56:09;2.20;1.00
3876;DHT22;1953;51.222;6.624;2024-01-15T21:00:52;2.20;1.00
3876;DHT22;1953;51.222;6.624;2024-01-15T21:05:35;2.20;1.00
3876;DHT22;1953;51.222;6.624;2024-01-15T21:10:19;2.10;1.00
3876;DHT22;1953;51.222;6.624;2024-01-15T21:15:02;2.10;1.00
3876;DHT22;1953;51.222;6.624;2024-01-15T21:19:45;2.10;1.00
3876;DHT22;1953;51.222;6.624;2024-01-15T21:24:27;2.20;1.00
3876;DHT22;1953;51.222;6.624;2024-01-15T21:29:11;2.20;1.00
3876;DHT22;1953;51.222;6.624;2024-01-15T21:33:56;2.20;1.00
3876;DHT22;1953;51.222;6.624;2024-01-15T21:38:38;2.30;1.00
3876;DHT22;1953;51.222;6.624;2024-01-15T21:43:21;2.40;1.00
3876;DHT22;1953;51.222;6.624;2024-01-15T21:48:05;2.40;1.00
3876;DHT22;1953;51.222;6.624;2024-01-15T21:52:48;2.50;1.00
3876;DHT22;1953;51.222;6.624;2024-01-15T21:57:30;2.50;1.00
3876;DHT22;1953;51.222;6.624;2024-01-15T22:02:13;2.50;1.00
3876;DHT22;1953;51.222;6.624;2024-01-15T22:06:56;2.50;1.00
3876;DHT22;1953;51.222;6.624;2024-01-15T22:11:39;2.60;1.00
3876;DHT22;1953;51.222;6.624;2024-01-15T22:16:21;2.50;1.00
3876;DHT22;1953;51.222;6.624;2024-01-15T22:21:04;2.60;1.00
3876;DHT22;1953;51.222;6.624;2024-01-15T22:25:48;2.60;1.00
3876;DHT22;1953;51.222;6.624;2024-01-15T22:30:30;2.50;1.00
3876;DHT22;1953;51.222;6.624;2024-01-15T22:35:13;2.50;1.00
3876;DHT22;1953;51.222;6.624;2024-01-15T22:39:55;2.60;1.00
3876;DHT22;1953;51.222;6.624;2024-01-15T22:44:40;2.60;1.00
3876;DHT22;1953;51.222;6.624;2024-01-15T22:49:23;2.50;1.00
3876;DHT22;1953;51.222;6.624;2024-01-15T22:54:05;2.50;1.00
3876;DHT22;1953;51.222;6.624;2024-01-15T22:58:48;2.50;1.00
3876;DHT22;1953;51.222;6.624;2024-01-15T23:03:32;2.50;1.00
3876;DHT22;1953;51.222;6.624;2024-01-15T23:08:14;2.50;1.00
3876;DHT22;1953;51.222;6.624;2024-01-15T23:12:57;2.50;1.00
3876;DHT22;1953;51.222;6.624;2024-01-15T23:17:41;2.60;1.00
3876;DHT22;1953;51.222;6.624;2024-01-15T23:22:26;2.60;1.00
3876;DHT22;1953;51.222;6.624;2024-01-15T23:27:08;2.60;1.00
3876;DHT22;1953;51.222;6.624;2024-01-15T23:31:51;2.60;1.00
3876;DHT22;1953;51.222;6.624;2024-01-15T23:36:34;2.70;1.00
3876;DHT22;1953;51.222;6.624;2024-01-15T23:41:21;2.70;1.00
3876;DHT22;1953;51.222;6.624;2024-01-15T23:46:03;3.30;1.00
3876;DHT22;1953;51.222;6.624;2024-01-15T23:50:46;2.70;1.00
3876;DHT22;1953;51.222;6.624;2024-01-15T23:55:29;2.70;1.00
